Prince Albert Glass Field
CYPA : now visible

Airfield :











YOU CAN JOIN US ON...

 
LOGIN :

Register | Disclaimer

   EN    FR    IT 

 









Legend :    VFR   Marginal VFR   IFR   Intensive IFR   Very Intensive IFR
Visi :
Ceiling :
>= 8 km
>= 3000ft
5 to 8 km
1000 to 3000 ft
1500m to 5 km
500 to 1000 ft
800 to 1500m
200 to 500 ft
< 800m
< 200 ft
Symbols :   Thunderstorms  Fog  Heavy snow  Heavy precipitations  Wind > 20 kt






- Airport Elevation : 1405 ft
- IATA code : YPA


CYPA - Prince Albert Glass Field

CURRENT METAR :
  • 301000Z 23007KT 15SM FEW250 M27/M30 A3007 RMK CI2 SLP237

EXPIRED METARs :
  • 300900Z 23008KT 15SM FEW120 BKN250 M27/M30 A3007 RMK AS2CI4 SLP239
  • 300800Z 23008KT 15SM BKN120 M25/M29 A3010 RMK AS6 SLP246

TAF TAF CYPA
Valid from the 30 at 07:00 until the 30 at 19:00 UTC


300643Z 3007/3019 25005KT P6SM SCT110
FM301400 29008KT P6SM FEW020
TEMPO 3014/3019 P6SM -SN BKN020 RMK NXT FCST BY 301300Z
CZWG FIR / North America



MET'MAP, your aeronautical weather chart ! - Copyright ORBIFLY December 2007 - Disclaimer

ORBIFLY MET'MAP TEAM :

Programming & Development : Alexandra Zaïnal
Original concept : Baudouin d'Aumeries
Technical & hardware support : Manuel Goepfert
Assistance : Marc-Olivier Méhu




SOURCES & CREDITS :

   NOAA       Earth
Advisory